sensor_id;sensor_type;location;lat;lon;timestamp;P1;P2;P0
55043;PMS5003;54902;50.420;18.854;2022-09-20T00:00:06;14;12;9
55043;PMS5003;54902;50.420;18.854;2022-09-20T00:00:22;14;12;9
55043;PMS5003;54902;50.420;18.854;2022-09-20T00:00:38;14;12;9
55043;PMS5003;54902;50.420;18.854;2022-09-20T00:01:23;14;12;9
55043;PMS5003;54902;50.420;18.854;2022-09-20T00:01:42;14;12;9
55043;PMS5003;54902;50.420;18.854;2022-09-20T00:01:58;13;11;8
55043;PMS5003;54902;50.420;18.854;2022-09-20T00:02:14;12;12;8
55043;PMS5003;54902;50.420;18.854;2022-09-20T00:02:35;9;9;6
55043;PMS5003;54902;50.420;18.854;2022-09-20T00:02:51;9;9;6
55043;PMS5003;54902;50.420;18.854;2022-09-20T00:03:08;9;9;6
55043;PMS5003;54902;50.420;18.854;2022-09-20T00:03:25;9;9;6
55043;PMS5003;54902;50.420;18.854;2022-09-20T00:03:44;9;9;6
55043;PMS5003;54902;50.420;18.854;2022-09-20T00:04:02;9;9;6
55043;PMS5003;54902;50.420;18.854;2022-09-20T00:04:20;9;9;6
55043;PMS5003;54902;50.420;18.854;2022-09-20T00:04:36;10;10;8
55043;PMS5003;54902;50.420;18.854;2022-09-20T00:04:52;10;10;8
55043;PMS5003;54902;50.420;18.854;2022-09-20T00:05:08;10;10;7
55043;PMS5003;54902;50.420;18.854;2022-09-20T00:05:24;10;10;7
55043;PMS5003;54902;50.420;18.854;2022-09-20T00:05:41;10;10;7
55043;PMS5003;54902;50.420;18.854;2022-09-20T00:06:01;10;10;7
55043;PMS5003;54902;50.420;18.854;2022-09-20T00:06:19;10;10;7
55043;PMS5003;54902;50.420;18.854;2022-09-20T00:06:36;10;10;7
55043;PMS5003;54902;50.420;18.854;2022-09-20T00:06:52;10;10;7
55043;PMS5003;54902;50.420;18.854;2022-09-20T00:07:08;10;10;7
55043;PMS5003;54902;50.420;18.854;2022-09-20T00:07:24;10;10;7
55043;PMS5003;54902;50.420;18.854;2022-09-20T00:07:43;10;10;7
55043;PMS5003;54902;50.420;18.854;2022-09-20T00:07:59;14;14;10
55043;PMS5003;54902;50.420;18.854;2022-09-20T00:08:15;14;14;10
55043;PMS5003;54902;50.420;18.854;2022-09-20T00:08:31;14;14;10
55043;PMS5003;54902;50.420;18.854;2022-09-20T00:08:48;14;14;10
55043;PMS5003;54902;50.420;18.854;2022-09-20T00:09:05;14;14;10
55043;PMS5003;54902;50.420;18.854;2022-09-20T00:09:21;14;14;10
55043;PMS5003;54902;50.420;18.854;2022-09-20T00:09:36;9;9;7
55043;PMS5003;54902;50.420;18.854;2022-09-20T00:09:55;9;9;7
55043;PMS5003;54902;50.420;18.854;2022-09-20T00:10:12;9;9;7
55043;PMS5003;54902;50.420;18.854;2022-09-20T00:10:28;9;9;7
55043;PMS5003;54902;50.420;18.854;2022-09-20T00:10:48;9;9;7
55043;PMS5003;54902;50.420;18.854;2022-09-20T00:11:05;9;9;7
55043;PMS5003;54902;50.420;18.854;2022-09-20T00:11:25;9;9;7
55043;PMS5003;54902;50.420;18.854;2022-09-20T00:11:43;9;9;7
55043;PMS5003;54902;50.420;18.854;2022-09-20T00:11:59;9;9;7
55043;PMS5003;54902;50.420;18.854;2022-09-20T00:12:16;9;9;7
55043;PMS5003;54902;50.420;18.854;2022-09-20T00:12:32;9;9;7
55043;PMS5003;54902;50.420;18.854;2022-09-20T00:12:47;9;9;7
55043;PMS5003;54902;50.420;18.854;2022-09-20T00:13:04;9;9;7
55043;PMS5003;54902;50.420;18.854;2022-09-20T00:13:22;9;9;7
55043;PMS5003;54902;50.420;18.854;2022-09-20T00:13:38;12;12;9
55043;PMS5003;54902;50.420;18.854;2022-09-20T00:13:55;12;12;9
55043;PMS5003;54902;50.420;18.854;2022-09-20T00:14:12;12;12;9
55043;PMS5003;54902;50.420;18.854;2022-09-20T00:14:28;12;12;9
55043;PMS5003;54902;50.420;18.854;2022-09-20T00:14:45;12;12;9
55043;PMS5003;54902;50.420;18.854;2022-09-20T00:15:01;10;10;7
55043;PMS5003;54902;50.420;18.854;2022-09-20T00:15:17;10;10;7
55043;PMS5003;54902;50.420;18.854;2022-09-20T00:15:33;10;10;7
55043;PMS5003;54902;50.420;18.854;2022-09-20T00:15:54;10;10;7
55043;PMS5003;54902;50.420;18.854;2022-09-20T00:16:14;10;10;7
55043;PMS5003;54902;50.420;18.854;2022-09-20T00:16:34;9;9;7
55043;PMS5003;54902;50.420;18.854;2022-09-20T00:16:53;9;9;7
55043;PMS5003;54902;50.420;18.854;2022-09-20T00:17:09;9;9;7
55043;PMS5003;54902;50.420;18.854;2022-09-20T00:17:25;9;9;7
55043;PMS5003;54902;50.420;18.854;2022-09-20T00:17:41;9;9;7
55043;PMS5003;54902;50.420;18.854;2022-09-20T00:17:57;9;9;7
55043;PMS5003;54902;50.420;18.854;2022-09-20T00:18:12;9;9;7
55043;PMS5003;54902;50.420;18.854;2022-09-20T00:18:29;9;9;7
55043;PMS5003;54902;50.420;18.854;2022-09-20T00:18:48;9;9;7
55043;PMS5003;54902;50.420;18.854;2022-09-20T00:19:05;9;9;7
55043;PMS5003;54902;50.420;18.854;2022-09-20T00:19:21;14;14;11
55043;PMS5003;54902;50.420;18.854;2022-09-20T00:19:37;14;14;11
55043;PMS5003;54902;50.420;18.854;2022-09-20T00:19:53;14;14;11
55043;PMS5003;54902;50.420;18.854;2022-09-20T00:20:09;14;14;11
55043;PMS5003;54902;50.420;18.854;2022-09-20T00:20:25;14;14;11
55043;PMS5003;54902;50.420;18.854;2022-09-20T00:20:45;14;14;11
55043;PMS5003;54902;50.420;18.854;2022-09-20T00:21:02;10;10;8
55043;PMS5003;54902;50.420;18.854;2022-09-20T00:21:25;8;8;6
55043;PMS5003;54902;50.420;18.854;2022-09-20T00:21:43;8;8;6
55043;PMS5003;54902;50.420;18.854;2022-09-20T00:21:59;8;8;6
55043;PMS5003;54902;50.420;18.854;2022-09-20T00:22:15;12;12;9
55043;PMS5003;54902;50.420;18.854;2022-09-20T00:22:31;12;12;9
55043;PMS5003;54902;50.420;18.854;2022-09-20T00:22:47;12;12;9
55043;PMS5003;54902;50.420;18.854;2022-09-20T00:23:03;12;12;9
55043;PMS5003;54902;50.420;18.854;2022-09-20T00:23:19;12;12;9
55043;PMS5003;54902;50.420;18.854;2022-09-20T00:23:35;12;12;9
55043;PMS5003;54902;50.420;18.854;2022-09-20T00:23:51;12;12;9
55043;PMS5003;54902;50.420;18.854;2022-09-20T00:24:08;12;12;9
55043;PMS5003;54902;50.420;18.854;2022-09-20T00:24:25;12;12;9
55043;PMS5003;54902;50.420;18.854;2022-09-20T00:24:44;12;12;9
55043;PMS5003;54902;50.420;18.854;2022-09-20T00:25:01;14;14;11
55043;PMS5003;54902;50.420;18.854;2022-09-20T00:25:18;14;14;11
55043;PMS5003;54902;50.420;18.854;2022-09-20T00:25:34;9;9;7
55043;PMS5003;54902;50.420;18.854;2022-09-20T00:25:58;9;9;7
55043;PMS5003;54902;50.420;18.854;2022-09-20T00:26:15;6;6;3
55043;PMS5003;54902;50.420;18.854;2022-09-20T00:26:31;6;6;3
55043;PMS5003;54902;50.420;18.854;2022-09-20T00:26:48;6;6;3
55043;PMS5003;54902;50.420;18.854;2022-09-20T00:27:04;6;6;3
55043;PMS5003;54902;50.420;18.854;2022-09-20T00:27:20;6;6;3
55043;PMS5003;54902;50.420;18.854;2022-09-20T00:27:36;6;6;3
55043;PMS5003;54902;50.420;18.854;2022-09-20T00:27:52;2;2;0
55043;PMS5003;54902;50.420;18.854;2022-09-20T00:28:08;2;2;0
55043;PMS5003;54902;50.420;18.854;2022-09-20T00:28:25;2;2;0
55043;PMS5003;54902;50.420;18.854;2022-09-20T00:28:41;2;2;0
55043;PMS5003;54902;50.420;18.854;2022-09-20T00:28:58;2;2;0
55043;PMS5003;54902;50.420;18.854;2022-09-20T00:29:15;2;2;0
55043;PMS5003;54902;50.420;18.854;2022-09-20T00:29:31;2;2;0
55043;PMS5003;54902;50.420;18.854;2022-09-20T00:29:47;2;2;0
55043;PMS5003;54902;50.420;18.854;2022-09-20T00:30:03;2;2;0
55043;PMS5003;54902;50.420;18.854;2022-09-20T00:30:19;2;2;0
55043;PMS5003;54902;50.420;18.854;2022-09-20T00:30:36;3;3;0
55043;PMS5003;54902;50.420;18.854;2022-09-20T00:30:53;3;3;0
55043;PMS5003;54902;50.420;18.854;2022-09-20T00:31:10;3;3;0
55043;PMS5003;54902;50.420;18.854;2022-09-20T00:31:27;3;3;0
55043;PMS5003;54902;50.420;18.854;2022-09-20T00:31:43;3;3;0
55043;PMS5003;54902;50.420;18.854;2022-09-20T00:31:59;3;3;0
55043;PMS5003;54902;50.420;18.854;2022-09-20T00:32:15;3;3;0
55043;PMS5003;54902;50.420;18.854;2022-09-20T00:32:31;3;3;0
55043;PMS5003;54902;50.420;18.854;2022-09-20T00:32:46;3;3;0
55043;PMS5003;54902;50.420;18.854;2022-09-20T00:33:02;3;3;0
55043;PMS5003;54902;50.420;18.854;2022-09-20T00:33:19;3;3;0
55043;PMS5003;54902;50.420;18.854;2022-09-20T00:33:37;3;3;0
55043;PMS5003;54902;50.420;18.854;2022-09-20T00:34:05;3;3;0
55043;PMS5003;54902;50.420;18.854;2022-09-20T00:34:32;3;3;0
55043;PMS5003;54902;50.420;18.854;2022-09-20T00:35:00;3;3;0
55043;PMS5003;54902;50.420;18.854;2022-09-20T00:35:22;3;3;0
55043;PMS5003;54902;50.420;18.854;2022-09-20T00:35:38;3;3;0
55043;PMS5003;54902;50.420;18.854;2022-09-20T00:35:58;3;3;0
55043;PMS5003;54902;50.420;18.854;2022-09-20T00:36:14;3;3;0
55043;PMS5003;54902;50.420;18.854;2022-09-20T00:36:31;3;3;0
55043;PMS5003;54902;50.420;18.854;2022-09-20T00:36:47;3;3;0
55043;PMS5003;54902;50.420;18.854;2022-09-20T00:37:02;6;6;4
55043;PMS5003;54902;50.420;18.854;2022-09-20T00:37:18;6;6;4
55043;PMS5003;54902;50.420;18.854;2022-09-20T00:37:35;6;6;4
55043;PMS5003;54902;50.420;18.854;2022-09-20T00:37:53;6;6;4
55043;PMS5003;54902;50.420;18.854;2022-09-20T00:38:10;6;6;4
55043;PMS5003;54902;50.420;18.854;2022-09-20T00:38:28;6;6;4
55043;PMS5003;54902;50.420;18.854;2022-09-20T00:38:44;6;6;4
55043;PMS5003;54902;50.420;18.854;2022-09-20T00:39:00;6;6;4
55043;PMS5003;54902;50.420;18.854;2022-09-20T00:39:18;6;6;4
55043;PMS5003;54902;50.420;18.854;2022-09-20T00:39:34;11;11;8
55043;PMS5003;54902;50.420;18.854;2022-09-20T00:39:50;11;11;8
55043;PMS5003;54902;50.420;18.854;2022-09-20T00:40:07;11;11;8
55043;PMS5003;54902;50.420;18.854;2022-09-20T00:40:26;11;11;8
55043;PMS5003;54902;50.420;18.854;2022-09-20T00:40:44;11;11;8
55043;PMS5003;54902;50.420;18.854;2022-09-20T00:41:00;11;11;8
55043;PMS5003;54902;50.420;18.854;2022-09-20T00:41:16;11;11;8
55043;PMS5003;54902;50.420;18.854;2022-09-20T00:41:32;11;11;8
55043;PMS5003;54902;50.420;18.854;2022-09-20T00:41:48;11;11;8
55043;PMS5003;54902;50.420;18.854;2022-09-20T00:42:04;11;11;8
55043;PMS5003;54902;50.420;18.854;2022-09-20T00:42:25;11;11;8
55043;PMS5003;54902;50.420;18.854;2022-09-20T00:42:43;11;11;8
55043;PMS5003;54902;50.420;18.854;2022-09-20T00:42:58;11;11;8
55043;PMS5003;54902;50.420;18.854;2022-09-20T00:43:15;11;11;8
55043;PMS5003;54902;50.420;18.854;2022-09-20T00:44:01;10;10;6
55043;PMS5003;54902;50.420;18.854;2022-09-20T00:45:43;10;10;6
55043;PMS5003;54902;50.420;18.854;2022-09-20T00:46:03;15;12;8
55043;PMS5003;54902;50.420;18.854;2022-09-20T00:46:33;15;12;8
55043;PMS5003;54902;50.420;18.854;2022-09-20T00:46:57;15;12;8
55043;PMS5003;54902;50.420;18.854;2022-09-20T00:47:20;15;12;8
55043;PMS5003;54902;50.420;18.854;2022-09-20T00:47:41;15;12;8
55043;PMS5003;54902;50.420;18.854;2022-09-20T00:48:05;15;12;8
55043;PMS5003;54902;50.420;18.854;2022-09-20T00:48:32;15;12;8
55043;PMS5003;54902;50.420;18.854;2022-09-20T00:48:50;15;12;8
55043;PMS5003;54902;50.420;18.854;2022-09-20T00:49:37;15;12;8
55043;PMS5003;54902;50.420;18.854;2022-09-20T00:49:55;17;14;9
55043;PMS5003;54902;50.420;18.854;2022-09-20T00:51:13;8;8;5
55043;PMS5003;54902;50.420;18.854;2022-09-20T00:51:36;8;8;5
55043;PMS5003;54902;50.420;18.854;2022-09-20T00:51:56;8;8;5
55043;PMS5003;54902;50.420;18.854;2022-09-20T00:52:16;8;8;5
55043;PMS5003;54902;50.420;18.854;2022-09-20T00:52:33;8;8;5
55043;PMS5003;54902;50.420;18.854;2022-09-20T00:52:53;8;8;5
55043;PMS5003;54902;50.420;18.854;2022-09-20T00:53:47;13;13;8
55043;PMS5003;54902;50.420;18.854;2022-09-20T00:54:05;13;13;8
55043;PMS5003;54902;50.420;18.854;2022-09-20T00:54:24;13;13;8
55043;PMS5003;54902;50.420;18.854;2022-09-20T00:54:43;13;13;8
55043;PMS5003;54902;50.420;18.854;2022-09-20T00:55:00;13;13;8
55043;PMS5003;54902;50.420;18.854;2022-09-20T00:55:21;13;13;8
55043;PMS5003;54902;50.420;18.854;2022-09-20T00:55:58;13;13;8
55043;PMS5003;54902;50.420;18.854;2022-09-20T00:56:11;13;13;8
55043;PMS5003;54902;50.420;18.854;2022-09-20T00:56:35;13;13;8
55043;PMS5003;54902;50.420;18.854;2022-09-20T00:56:58;13;13;8
55043;PMS5003;54902;50.420;18.854;2022-09-20T00:57:14;10;10;7
55043;PMS5003;54902;50.420;18.854;2022-09-20T00:57:30;10;10;7
55043;PMS5003;54902;50.420;18.854;2022-09-20T00:57:50;10;10;7
55043;PMS5003;54902;50.420;18.854;2022-09-20T00:58:07;10;10;7
55043;PMS5003;54902;50.420;18.854;2022-09-20T00:58:24;10;10;7
55043;PMS5003;54902;50.420;18.854;2022-09-20T00:58:45;10;10;7
55043;PMS5003;54902;50.420;18.854;2022-09-20T00:59:14;10;10;7
55043;PMS5003;54902;50.420;18.854;2022-09-20T00:59:32;10;10;7
55043;PMS5003;54902;50.420;18.854;2022-09-20T00:59:51;10;10;7
55043;PMS5003;54902;50.420;18.854;2022-09-20T01:00:09;10;10;7
55043;PMS5003;54902;50.420;18.854;2022-09-20T01:00:28;14;14;10
55043;PMS5003;54902;50.420;18.854;2022-09-20T01:00:44;14;14;10
55043;PMS5003;54902;50.420;18.854;2022-09-20T01:01:01;14;14;10
55043;PMS5003;54902;50.420;18.854;2022-09-20T01:01:20;14;14;10
55043;PMS5003;54902;50.420;18.854;2022-09-20T01:01:35;14;14;10
55043;PMS5003;54902;50.420;18.854;2022-09-20T01:02:25;14;14;10
55043;PMS5003;54902;50.420;18.854;2022-09-20T01:02:47;14;14;10
55043;PMS5003;54902;50.420;18.854;2022-09-20T01:03:07;14;14;10
55043;PMS5003;54902;50.420;18.854;2022-09-20T01:03:27;14;14;10
55043;PMS5003;54902;50.420;18.854;2022-09-20T01:03:46;14;14;10
55043;PMS5003;54902;50.420;18.854;2022-09-20T01:04:04;14;14;10
55043;PMS5003;54902;50.420;18.854;2022-09-20T01:04:21;10;10;7
55043;PMS5003;54902;50.420;18.854;2022-09-20T01:04:39;10;10;7
55043;PMS5003;54902;50.420;18.854;2022-09-20T01:04:57;14;13;8
55043;PMS5003;54902;50.420;18.854;2022-09-20T01:05:14;14;13;8
55043;PMS5003;54902;50.420;18.854;2022-09-20T01:05:32;14;13;8
55043;PMS5003;54902;50.420;18.854;2022-09-20T01:05:50;14;13;8
55043;PMS5003;54902;50.420;18.854;2022-09-20T01:06:09;14;13;11
55043;PMS5003;54902;50.420;18.854;2022-09-20T01:06:28;14;13;11
55043;PMS5003;54902;50.420;18.854;2022-09-20T01:06:46;11;11;7
55043;PMS5003;54902;50.420;18.854;2022-09-20T01:07:06;11;11;7
55043;PMS5003;54902;50.420;18.854;2022-09-20T01:07:23;11;11;7
55043;PMS5003;54902;50.420;18.854;2022-09-20T01:07:41;11;11;7
55043;PMS5003;54902;50.420;18.854;2022-09-20T01:07:59;11;11;7
55043;PMS5003;54902;50.420;18.854;2022-09-20T01:08:15;11;11;7
55043;PMS5003;54902;50.420;18.854;2022-09-20T01:08:32;11;11;7
55043;PMS5003;54902;50.420;18.854;2022-09-20T01:08:50;11;11;7
55043;PMS5003;54902;50.420;18.854;2022-09-20T01:09:09;11;11;7
55043;PMS5003;54902;50.420;18.854;2022-09-20T01:09:25;11;11;7
55043;PMS5003;54902;50.420;18.854;2022-09-20T01:09:41;15;15;10
55043;PMS5003;54902;50.420;18.854;2022-09-20T01:09:57;15;15;10
55043;PMS5003;54902;50.420;18.854;2022-09-20T01:10:13;15;15;10
55043;PMS5003;54902;50.420;18.854;2022-09-20T01:10:30;15;15;10
55043;PMS5003;54902;50.420;18.854;2022-09-20T01:10:47;15;15;10
55043;PMS5003;54902;50.420;18.854;2022-09-20T01:11:03;15;15;10
55043;PMS5003;54902;50.420;18.854;2022-09-20T01:11:19;15;15;10
55043;PMS5003;54902;50.420;18.854;2022-09-20T01:11:35;15;15;10
55043;PMS5003;54902;50.420;18.854;2022-09-20T01:11:53;15;15;10
55043;PMS5003;54902;50.420;18.854;2022-09-20T01:12:12;15;15;10
55043;PMS5003;54902;50.420;18.854;2022-09-20T01:12:31;15;15;10
55043;PMS5003;54902;50.420;18.854;2022-09-20T01:12:50;15;15;10
55043;PMS5003;54902;50.420;18.854;2022-09-20T01:13:07;15;15;10
55043;PMS5003;54902;50.420;18.854;2022-09-20T01:13:23;15;15;10
55043;PMS5003;54902;50.420;18.854;2022-09-20T01:13:39;15;15;10
55043;PMS5003;54902;50.420;18.854;2022-09-20T01:13:55;15;15;10
55043;PMS5003;54902;50.420;18.854;2022-09-20T01:14:12;15;15;10
55043;PMS5003;54902;50.420;18.854;2022-09-20T01:14:33;15;15;10
55043;PMS5003;54902;50.420;18.854;2022-09-20T01:14:49;15;15;10
55043;PMS5003;54902;50.420;18.854;2022-09-20T01:15:07;15;15;10
55043;PMS5003;54902;50.420;18.854;2022-09-20T01:15:26;15;15;10
55043;PMS5003;54902;50.420;18.854;2022-09-20T01:15:44;11;11;8
55043;PMS5003;54902;50.420;18.854;2022-09-20T01:16:03;11;11;8
55043;PMS5003;54902;50.420;18.854;2022-09-20T01:16:21;11;11;8
55043;PMS5003;54902;50.420;18.854;2022-09-20T01:16:38;11;11;8
55043;PMS5003;54902;50.420;18.854;2022-09-20T01:16:55;11;11;8
55043;PMS5003;54902;50.420;18.854;2022-09-20T01:17:14;11;11;8
55043;PMS5003;54902;50.420;18.854;2022-09-20T01:17:33;11;11;8
55043;PMS5003;54902;50.420;18.854;2022-09-20T01:17:52;11;11;8
55043;PMS5003;54902;50.420;18.854;2022-09-20T01:18:12;11;11;8
55043;PMS5003;54902;50.420;18.854;2022-09-20T01:18:30;15;15;12
55043;PMS5003;54902;50.420;18.854;2022-09-20T01:18:49;15;15;12
55043;PMS5003;54902;50.420;18.854;2022-09-20T01:19:09;15;15;12
55043;PMS5003;54902;50.420;18.854;2022-09-20T01:20:31;15;15;12
55043;PMS5003;54902;50.420;18.854;2022-09-20T01:20:53;15;15;12
55043;PMS5003;54902;50.420;18.854;2022-09-20T01:21:10;15;15;12
55043;PMS5003;54902;50.420;18.854;2022-09-20T01:21:27;15;15;12
55043;PMS5003;54902;50.420;18.854;2022-09-20T01:21:44;15;15;12
55043;PMS5003;54902;50.420;18.854;2022-09-20T01:22:02;15;15;12
55043;PMS5003;54902;50.420;18.854;2022-09-20T01:22:34;15;15;12
55043;PMS5003;54902;50.420;18.854;2022-09-20T01:24:37;15;15;12
55043;PMS5003;54902;50.420;18.854;2022-09-20T01:26:44;8;8;6
55043;PMS5003;54902;50.420;18.854;2022-09-20T01:27:14;8;8;6
55043;PMS5003;54902;50.420;18.854;2022-09-20T01:28:03;9;9;5
55043;PMS5003;54902;50.420;18.854;2022-09-20T01:28:19;9;9;5
55043;PMS5003;54902;50.420;18.854;2022-09-20T01:28:37;9;9;5
55043;PMS5003;54902;50.420;18.854;2022-09-20T01:29:56;9;9;5
55043;PMS5003;54902;50.420;18.854;2022-09-20T01:30:21;9;9;5
55043;PMS5003;54902;50.420;18.854;2022-09-20T01:31:48;13;13;9
55043;PMS5003;54902;50.420;18.854;2022-09-20T01:32:01;13;13;9
55043;PMS5003;54902;50.420;18.854;2022-09-20T01:32:22;13;13;9
55043;PMS5003;54902;50.420;18.854;2022-09-20T01:33:16;13;13;9
55043;PMS5003;54902;50.420;18.854;2022-09-20T01:34:14;13;13;9
55043;PMS5003;54902;50.420;18.854;2022-09-20T01:34:36;13;13;9
55043;PMS5003;54902;50.420;18.854;2022-09-20T01:34:59;14;14;10
55043;PMS5003;54902;50.420;18.854;2022-09-20T01:35:16;14;14;10
55043;PMS5003;54902;50.420;18.854;2022-09-20T01:35:35;14;14;10
55043;PMS5003;54902;50.420;18.854;2022-09-20T01:35:53;14;14;10
55043;PMS5003;54902;50.420;18.854;2022-09-20T01:36:15;14;14;10
55043;PMS5003;54902;50.420;18.854;2022-09-20T01:36:48;14;14;10
55043;PMS5003;54902;50.420;18.854;2022-09-20T01:37:10;14;14;10
55043;PMS5003;54902;50.420;18.854;2022-09-20T01:37:45;14;14;10
55043;PMS5003;54902;50.420;18.854;2022-09-20T01:38:38;14;14;10
55043;PMS5003;54902;50.420;18.854;2022-09-20T01:40:02;9;9;5
55043;PMS5003;54902;50.420;18.854;2022-09-20T01:41:22;9;9;5
55043;PMS5003;54902;50.420;18.854;2022-09-20T01:41:51;9;9;5
55043;PMS5003;54902;50.420;18.854;2022-09-20T01:42:12;9;9;5
55043;PMS5003;54902;50.420;18.854;2022-09-20T01:42:33;9;9;5
55043;PMS5003;54902;50.420;18.854;2022-09-20T01:43:01;9;9;5
55043;PMS5003;54902;50.420;18.854;2022-09-20T01:43:25;14;14;9
55043;PMS5003;54902;50.420;18.854;2022-09-20T01:43:50;14;14;9
55043;PMS5003;54902;50.420;18.854;2022-09-20T01:45:34;14;14;9
55043;PMS5003;54902;50.420;18.854;2022-09-20T01:45:57;14;14;9
55043;PMS5003;54902;50.420;18.854;2022-09-20T01:46:45;14;14;9
55043;PMS5003;54902;50.420;18.854;2022-09-20T01:47:15;13;13;9
55043;PMS5003;54902;50.420;18.854;2022-09-20T01:48:36;12;12;8
55043;PMS5003;54902;50.420;18.854;2022-09-20T01:48:56;12;12;8
55043;PMS5003;54902;50.420;18.854;2022-09-20T01:52:18;14;14;10
55043;PMS5003;54902;50.420;18.854;2022-09-20T01:56:01;14;14;10
55043;PMS5003;54902;50.420;18.854;2022-09-20T01:59:45;10;10;8
55043;PMS5003;54902;50.420;18.854;2022-09-20T02:02:35;13;13;9
55043;PMS5003;54902;50.420;18.854;2022-09-20T02:02:46;13;13;9
55043;PMS5003;54902;50.420;18.854;2022-09-20T02:05:33;10;10;7
55043;PMS5003;54902;50.420;18.854;2022-09-20T02:06:03;10;10;7
55043;PMS5003;54902;50.420;18.854;2022-09-20T02:09:48;10;10;7
55043;PMS5003;54902;50.420;18.854;2022-09-20T02:15:22;13;13;9
55043;PMS5003;54902;50.420;18.854;2022-09-20T02:15:51;10;10;7
55043;PMS5003;54902;50.420;18.854;2022-09-20T02:16:48;10;10;7
55043;PMS5003;54902;50.420;18.854;2022-09-20T02:17:15;10;10;7
55043;PMS5003;54902;50.420;18.854;2022-09-20T02:18:02;10;10;7
55043;PMS5003;54902;50.420;18.854;2022-09-20T02:18:32;10;10;7
55043;PMS5003;54902;50.420;18.854;2022-09-20T02:19:26;11;11;8
55043;PMS5003;54902;50.420;18.854;2022-09-20T02:20:18;13;13;8
55043;PMS5003;54902;50.420;18.854;2022-09-20T02:21:12;13;13;8
55043;PMS5003;54902;50.420;18.854;2022-09-20T02:21:47;13;13;8
55043;PMS5003;54902;50.420;18.854;2022-09-20T02:22:09;13;13;8
55043;PMS5003;54902;50.420;18.854;2022-09-20T02:26:20;12;12;7
55043;PMS5003;54902;50.420;18.854;2022-09-20T02:27:13;9;9;6
55043;PMS5003;54902;50.420;18.854;2022-09-20T02:29:41;12;12;9
55043;PMS5003;54902;50.420;18.854;2022-09-20T02:31:01;9;9;7
55043;PMS5003;54902;50.420;18.854;2022-09-20T02:31:31;9;9;7
55043;PMS5003;54902;50.420;18.854;2022-09-20T02:37:19;8;8;5
55043;PMS5003;54902;50.420;18.854;2022-09-20T02:39:10;11;11;8
55043;PMS5003;54902;50.420;18.854;2022-09-20T02:39:36;11;11;8
55043;PMS5003;54902;50.420;18.854;2022-09-20T02:40:08;11;11;8
55043;PMS5003;54902;50.420;18.854;2022-09-20T02:41:26;11;11;8
55043;PMS5003;54902;50.420;18.854;2022-09-20T02:41:54;11;11;8
55043;PMS5003;54902;50.420;18.854;2022-09-20T02:42:23;11;11;8
55043;PMS5003;54902;50.420;18.854;2022-09-20T02:42:47;11;11;8
55043;PMS5003;54902;50.420;18.854;2022-09-20T02:44:38;12;12;9
55043;PMS5003;54902;50.420;18.854;2022-09-20T02:46:29;12;12;9
55043;PMS5003;54902;50.420;18.854;2022-09-20T02:47:51;12;12;9
55043;PMS5003;54902;50.420;18.854;2022-09-20T02:48:11;12;12;9
55043;PMS5003;54902;50.420;18.854;2022-09-20T02:48:35;12;12;9
55043;PMS5003;54902;50.420;18.854;2022-09-20T02:49:32;12;12;9
55043;PMS5003;54902;50.420;18.854;2022-09-20T02:50:02;12;12;9
55043;PMS5003;54902;50.420;18.854;2022-09-20T02:51:50;12;12;9
55043;PMS5003;54902;50.420;18.854;2022-09-20T02:54:05;11;11;8
55043;PMS5003;54902;50.420;18.854;2022-09-20T02:54:34;11;11;8
55043;PMS5003;54902;50.420;18.854;2022-09-20T02:54:59;11;11;8
55043;PMS5003;54902;50.420;18.854;2022-09-20T02:56:21;11;11;8
55043;PMS5003;54902;50.420;18.854;2022-09-20T02:56:51;11;11;8
55043;PMS5003;54902;50.420;18.854;2022-09-20T02:59:38;17;15;11
55043;PMS5003;54902;50.420;18.854;2022-09-20T03:00:36;17;15;11
55043;PMS5003;54902;50.420;18.854;2022-09-20T03:02:59;17;15;11
55043;PMS5003;54902;50.420;18.854;2022-09-20T03:06:42;11;11;8
55043;PMS5003;54902;50.420;18.854;2022-09-20T03:09:48;11;11;8
55043;PMS5003;54902;50.420;18.854;2022-09-20T03:11:00;11;11;8
55043;PMS5003;54902;50.420;18.854;2022-09-20T03:12:25;12;12;9
55043;PMS5003;54902;50.420;18.854;2022-09-20T03:12:48;12;12;9
55043;PMS5003;54902;50.420;18.854;2022-09-20T03:13:16;12;12;9
55043;PMS5003;54902;50.420;18.854;2022-09-20T03:14:11;12;12;9
55043;PMS5003;54902;50.420;18.854;2022-09-20T03:14:39;12;12;9
55043;PMS5003;54902;50.420;18.854;2022-09-20T03:15:09;12;12;9
55043;PMS5003;54902;50.420;18.854;2022-09-20T03:16:33;12;12;9
55043;PMS5003;54902;50.420;18.854;2022-09-20T03:17:00;12;12;9
55043;PMS5003;54902;50.420;18.854;2022-09-20T03:20:23;12;12;9
55043;PMS5003;54902;50.420;18.854;2022-09-20T03:20:45;12;12;9
55043;PMS5003;54902;50.420;18.854;2022-09-20T03:23:09;12;12;9
55043;PMS5003;54902;50.420;18.854;2022-09-20T03:25:56;12;12;9
55043;PMS5003;54902;50.420;18.854;2022-09-20T03:28:21;12;12;9
55043;PMS5003;54902;50.420;18.854;2022-09-20T03:29:48;10;10;8
55043;PMS5003;54902;50.420;18.854;2022-09-20T03:30:41;11;11;8
55043;PMS5003;54902;50.420;18.854;2022-09-20T03:32:22;11;11;8
55043;PMS5003;54902;50.420;18.854;2022-09-20T03:32:39;11;11;8
55043;PMS5003;54902;50.420;18.854;2022-09-20T03:37:01;14;14;11
55043;PMS5003;54902;50.420;18.854;2022-09-20T03:40:17;11;11;7
55043;PMS5003;54902;50.420;18.854;2022-09-20T03:41:39;11;11;7
55043;PMS5003;54902;50.420;18.854;2022-09-20T03:42:32;11;11;7
55043;PMS5003;54902;50.420;18.854;2022-09-20T03:42:57;11;11;7
55043;PMS5003;54902;50.420;18.854;2022-09-20T03:44:33;14;14;9
55043;PMS5003;54902;50.420;18.854;2022-09-20T03:45:51;14;14;9
55043;PMS5003;54902;50.420;18.854;2022-09-20T03:46:16;14;14;9
55043;PMS5003;54902;50.420;18.854;2022-09-20T03:46:43;14;14;9
55043;PMS5003;54902;50.420;18.854;2022-09-20T04:01:22;15;13;8
55043;PMS5003;54902;50.420;18.854;2022-09-20T04:05:25;8;8;6
55043;PMS5003;54902;50.420;18.854;2022-09-20T04:05:40;8;8;6
55043;PMS5003;54902;50.420;18.854;2022-09-20T04:08:38;11;11;7
55043;PMS5003;54902;50.420;18.854;2022-09-20T04:09:32;11;11;7
55043;PMS5003;54902;50.420;18.854;2022-09-20T04:11:07;11;11;7
55043;PMS5003;54902;50.420;18.854;2022-09-20T04:11:53;11;11;7
55043;PMS5003;54902;50.420;18.854;2022-09-20T04:15:08;11;11;6
55043;PMS5003;54902;50.420;18.854;2022-09-20T04:15:36;11;11;6
55043;PMS5003;54902;50.420;18.854;2022-09-20T04:17:30;14;14;7
55043;PMS5003;54902;50.420;18.854;2022-09-20T04:18:50;14;14;7
55043;PMS5003;54902;50.420;18.854;2022-09-20T04:19:21;14;14;7
55043;PMS5003;54902;50.420;18.854;2022-09-20T04:20:16;14;14;7
55043;PMS5003;54902;50.420;18.854;2022-09-20T04:21:58;17;17;9
55043;PMS5003;54902;50.420;18.854;2022-09-20T04:22:16;17;17;9
55043;PMS5003;54902;50.420;18.854;2022-09-20T04:22:36;17;17;9
55043;PMS5003;54902;50.420;18.854;2022-09-20T04:22:54;17;17;9